William R. Fairchild International Airport

Airport
ICAO code: 
KCLM
Summary
ICAO Region: 
NAM
Territory: 
Location: 
Port Angeles, Washington,
Coordinates: 
Aerial View: 
48° 6' 59.337" N, 123° 29' 35.671" W
Airport WX: 
Fog
Metar
Observation
KCLM 050453Z AUTO 25008KT 10SM CLR 03/01 A3031 RMK AO2 SLP269 T00280006
Station
Port Angeles, William R. Fairchild International Airport
Date/Time
2021-12-05 04:53:00
Wind direction
250°
Wind speed
08 kts
Lowest cloud amount
n/a
Temperature
2.8°C
Dew point
0.6°C
Humidity
85%
Weather condition
n/a

Description

William R. Fairchild International Airport is a public use airport located within the city limits of Port Angeles, in Clallam County, Washington.

Climatology

Temperate Marine climate/Oceanic climate (Köppen climate classification Cfb). Moderately cool summer and comparatively warm winter.

Runways

Designator Length Width Surface Rops
13/31 989 15 ASP Yes/Yes
8/26 1935 46 ASP Yes/Yes
Airport map: 
Aerial View: 

SKYbrary Partners:

Safety knowledge contributed by: